Details for Norwegian Air International at LIRF




Go Back


Latest METAR
Local Time

LIRF 180620Z 05004KT CAVOK 24/20 Q1015 NOSIG
18/08/2018, 08:28:59

Description
Results
Norwegian Air International Logo
Number of Pilots based at LIRF
0 Pilots Based here
Number of Norwegian Air International Flights Departed from LIRF
0 Flights Departed
Number of Norwegian Air International Flights Arrived at LIRF
5 Flights Arrived
Number of Norwegian Air International Schedules Departing from LIRF
8 Schedules
Number of Norwegian Air International Schedules Arriving at LIRF
9 Schedules
Number of Norwegian Air International Schedules Departing from LIRF availible today
5 Schedules Today
Number of Norwegian Air International Schedules Arriving at LIRF availible today
6 Schedules Today
Average Landing Rate at LIRF
-191 fpm
Norwegian Air International Average Landing Rate at LIRF
-148 fpm
Total Fuel Purchased at LIRF by Norwegian Air International
0.00 kgs / 0.00 lbs

Pilots Based at LIRF


Pilot ID
Pilot Name
Pilot Rank
No. of Flights
No. of Flying Hours
There are no pilots assigned to this hub!   Will you be the first?
Content